createdAt,value
2023-10-20T00:00:15.982Z,14.02
2023-10-20T00:03:18.712Z,12.43
2023-10-20T00:06:22.092Z,12.23
2023-10-20T00:09:24.229Z,13.60
2023-10-20T00:12:26.327Z,14.13
2023-10-20T00:15:29.393Z,13.57
2023-10-20T00:18:32.105Z,14.37
2023-10-20T00:21:34.608Z,13.00
2023-10-20T00:24:36.756Z,12.82
2023-10-20T00:27:39.393Z,14.35
2023-10-20T00:30:42.591Z,13.82
2023-10-20T00:33:47.088Z,12.03
2023-10-20T00:36:49.297Z,11.50
2023-10-20T00:39:51.836Z,11.40
2023-10-20T00:42:54.080Z,16.05
2023-10-20T00:45:56.345Z,15.32
2023-10-20T00:48:58.829Z,16.07
2023-10-20T00:52:01.252Z,18.63
2023-10-20T00:55:03.634Z,15.32
2023-10-20T00:58:06.005Z,13.30
2023-10-20T01:01:08.201Z,12.15
2023-10-20T01:04:10.511Z,12.07
2023-10-20T01:07:12.708Z,11.85
2023-10-20T01:10:15.138Z,11.35
2023-10-20T01:13:17.301Z,11.90
2023-10-20T01:16:22.103Z,11.20
2023-10-20T01:19:24.328Z,11.37
2023-10-20T01:22:26.533Z,10.93
2023-10-20T01:25:28.770Z,12.23
2023-10-20T01:28:32.069Z,11.85
2023-10-20T01:31:34.238Z,11.20
2023-10-20T01:34:36.674Z,12.17
2023-10-20T01:37:39.001Z,11.73
2023-10-20T01:40:41.214Z,11.77
2023-10-20T01:43:43.388Z,11.68
2023-10-20T01:46:50.729Z,12.40
2023-10-20T01:49:53.124Z,11.60
2023-10-20T01:52:55.263Z,14.63
2023-10-20T01:55:58.413Z,13.40
2023-10-20T01:59:01.781Z,12.40
2023-10-20T02:02:05.303Z,12.02
2023-10-20T02:05:11.104Z,11.40
2023-10-20T02:08:13.530Z,11.90
2023-10-20T02:11:16.461Z,12.00
2023-10-20T02:14:18.679Z,11.93
2023-10-20T02:17:20.994Z,12.57
2023-10-20T02:20:24.907Z,12.10
2023-10-20T02:23:27.815Z,12.27
2023-10-20T02:26:30.050Z,11.85
2023-10-20T02:29:34.520Z,11.60
2023-10-20T02:32:36.845Z,11.23
2023-10-20T02:35:41.107Z,11.70
2023-10-20T02:38:43.900Z,11.23
2023-10-20T02:41:46.446Z,11.38
2023-10-20T02:44:48.606Z,10.98
2023-10-20T02:47:51.850Z,11.38
2023-10-20T02:50:54.173Z,10.33
2023-10-20T02:53:56.255Z,11.65
2023-10-20T02:56:58.540Z,12.25
2023-10-20T03:00:00.765Z,10.68
2023-10-20T03:03:04.259Z,11.35
2023-10-20T03:06:08.187Z,11.03
2023-10-20T03:09:11.970Z,9.52
2023-10-20T03:12:14.123Z,10.13
2023-10-20T03:15:16.688Z,11.05
2023-10-20T03:18:18.965Z,11.15
2023-10-20T03:21:22.298Z,12.20
2023-10-20T03:24:25.153Z,11.88
2023-10-20T03:27:27.453Z,11.30
2023-10-20T03:30:30.398Z,12.50
2023-10-20T03:33:32.511Z,11.90
2023-10-20T03:36:34.628Z,11.53
2023-10-20T03:39:37.800Z,10.65
2023-10-20T03:42:43.974Z,9.98
2023-10-20T03:45:50.470Z,10.35
2023-10-20T03:48:52.685Z,12.63
2023-10-20T03:51:54.850Z,9.33
2023-10-20T03:54:57.346Z,9.73
2023-10-20T03:58:00.192Z,10.02
2023-10-20T04:01:07.956Z,12.40
2023-10-20T04:04:11.357Z,12.23
2023-10-20T04:07:13.621Z,10.57
2023-10-20T04:10:15.938Z,11.07
2023-10-20T04:13:18.085Z,15.20
2023-10-20T04:16:20.179Z,17.08
2023-10-20T04:19:22.664Z,15.50
2023-10-20T04:22:24.781Z,14.00
2023-10-20T04:25:29.909Z,13.73
2023-10-20T04:28:32.013Z,11.23
2023-10-20T04:31:52.650Z,12.70
2023-10-20T04:35:13.136Z,10.65
2023-10-20T04:38:33.819Z,10.80
2023-10-20T04:41:54.505Z,10.20
2023-10-20T04:45:19.580Z,11.27
2023-10-20T04:48:32.276Z,10.18
2023-10-20T04:51:52.894Z,12.43
2023-10-20T04:55:13.132Z,12.13
2023-10-20T04:58:24.147Z,12.40
2023-10-20T05:01:42.074Z,12.02
2023-10-20T05:04:47.518Z,10.30
2023-10-20T05:07:51.515Z,11.52
2023-10-20T05:10:55.626Z,11.03
2023-10-20T05:13:57.924Z,13.30
2023-10-20T05:17:00.026Z,13.60
2023-10-20T05:20:02.116Z,11.90
2023-10-20T05:23:04.384Z,14.35
2023-10-20T05:26:06.597Z,13.67
2023-10-20T05:29:09.313Z,13.27
2023-10-20T05:32:11.511Z,12.40
2023-10-20T05:35:14.557Z,13.27
2023-10-20T05:38:16.793Z,14.15
2023-10-20T05:41:19.076Z,13.23
2023-10-20T05:44:24.397Z,12.68
2023-10-20T05:47:26.917Z,11.95
2023-10-20T05:50:29.159Z,13.65
2023-10-20T05:53:31.426Z,12.93
2023-10-20T05:56:33.608Z,15.13
2023-10-20T05:59:35.858Z,44.20
2023-10-20T06:02:38.133Z,56.88
2023-10-20T06:05:40.691Z,30.45
2023-10-20T06:08:42.902Z,16.67
2023-10-20T06:11:45.388Z,16.13
2023-10-20T06:14:47.796Z,12.57
2023-10-20T06:17:53.784Z,13.30
2023-10-20T06:20:55.977Z,13.57
2023-10-20T06:23:58.281Z,11.95
2023-10-20T06:27:04.008Z,10.63
2023-10-20T06:30:15.851Z,14.55
2023-10-20T06:33:18.572Z,15.13
2023-10-20T06:36:26.468Z,14.55
2023-10-20T06:39:28.625Z,11.48
2023-10-20T06:42:31.072Z,11.77
2023-10-20T06:45:33.413Z,12.13
2023-10-20T06:48:35.659Z,12.27
2023-10-20T06:51:38.527Z,11.55
2023-10-20T06:54:40.850Z,12.13
2023-10-20T06:57:43.044Z,11.03
2023-10-20T07:00:45.799Z,11.93
2023-10-20T07:03:48.124Z,11.23
2023-10-20T07:06:52.316Z,14.23
2023-10-20T07:09:55.693Z,13.65
2023-10-20T07:12:57.862Z,13.60
2023-10-20T07:16:00.489Z,11.48
2023-10-20T07:19:03.117Z,12.45
2023-10-20T07:22:05.305Z,12.57
2023-10-20T07:25:09.101Z,12.13
2023-10-20T07:28:12.219Z,12.33
2023-10-20T07:31:15.603Z,11.32
2023-10-20T07:34:17.801Z,10.10
2023-10-20T07:37:20.077Z,10.68
2023-10-20T07:40:22.295Z,10.02
2023-10-20T07:43:24.517Z,9.50
2023-10-20T07:46:26.729Z,8.48
2023-10-20T07:49:28.882Z,8.13
2023-10-20T07:52:32.195Z,6.97
2023-10-20T07:55:34.475Z,7.07
2023-10-20T07:58:36.908Z,8.40
2023-10-20T08:01:39.079Z,7.03
2023-10-20T08:04:44.320Z,9.20
2023-10-20T08:07:48.212Z,10.07
2023-10-20T08:10:50.992Z,7.90
2023-10-20T08:13:55.220Z,7.80
2023-10-20T08:16:58.006Z,7.70
2023-10-20T08:20:00.590Z,8.55
2023-10-20T08:23:02.810Z,7.55
2023-10-20T08:26:05.321Z,11.15
2023-10-20T08:29:11.109Z,11.83
2023-10-20T08:32:13.774Z,8.13
2023-10-20T08:35:16.118Z,7.60
2023-10-20T08:38:18.401Z,7.32
2023-10-20T08:41:23.087Z,6.53
2023-10-20T08:44:26.046Z,6.80
2023-10-20T08:47:29.014Z,4.60
2023-10-20T08:50:33.037Z,5.70
2023-10-20T08:53:36.006Z,6.57
2023-10-20T08:56:38.332Z,6.05
2023-10-20T08:59:40.890Z,4.50
2023-10-20T09:02:43.404Z,7.00
2023-10-20T09:05:45.676Z,6.10
2023-10-20T09:08:54.306Z,7.65
2023-10-20T09:11:56.973Z,7.90
2023-10-20T09:14:59.265Z,9.27
2023-10-20T09:18:03.258Z,12.43
2023-10-20T09:21:06.227Z,6.95
2023-10-20T09:24:09.678Z,5.00
2023-10-20T09:27:12.857Z,4.18
2023-10-20T09:30:15.822Z,5.97
2023-10-20T09:33:18.089Z,6.70
2023-10-20T09:36:20.567Z,5.28
2023-10-20T09:39:26.538Z,4.50
2023-10-20T09:42:28.719Z,5.47
2023-10-20T09:45:37.828Z,4.27
2023-10-20T09:48:41.243Z,3.92
2023-10-20T09:51:45.574Z,4.30
2023-10-20T09:54:48.192Z,4.30
2023-10-20T09:57:51.437Z,4.65
2023-10-20T10:00:58.193Z,4.43
2023-10-20T10:04:05.017Z,4.68
2023-10-20T10:07:10.825Z,4.00
2023-10-20T10:10:19.715Z,3.78
2023-10-20T10:13:32.368Z,5.50
2023-10-20T10:16:59.710Z,4.20
2023-10-20T10:20:03.298Z,4.63
2023-10-20T10:23:07.750Z,4.40
2023-10-20T10:26:14.515Z,3.65
2023-10-20T10:29:17.252Z,3.90
2023-10-20T10:32:20.560Z,4.40
2023-10-20T10:35:24.365Z,3.50
2023-10-20T10:38:32.185Z,4.00
2023-10-20T10:41:35.603Z,4.03
2023-10-20T10:44:40.448Z,3.78
2023-10-20T10:47:44.722Z,3.40
2023-10-20T10:50:49.356Z,3.40
2023-10-20T10:53:52.566Z,3.60
2023-10-20T10:56:57.431Z,3.63
2023-10-20T11:00:01.938Z,3.50
2023-10-20T11:03:06.876Z,3.83
2023-10-20T11:06:10.170Z,3.67
2023-10-20T11:09:17.426Z,3.80
2023-10-20T11:12:21.786Z,3.38
2023-10-20T11:15:29.711Z,2.90
2023-10-20T11:18:34.167Z,3.23
2023-10-20T11:22:02.596Z,3.55
2023-10-20T11:25:06.562Z,3.70
2023-10-20T11:28:09.154Z,3.42
2023-10-20T11:31:12.677Z,3.30
2023-10-20T11:34:14.871Z,3.40
2023-10-20T11:37:16.976Z,3.67
2023-10-20T11:40:19.744Z,3.00
2023-10-20T11:43:21.966Z,3.50
2023-10-20T11:46:24.106Z,3.70
2023-10-20T11:49:26.343Z,4.27
2023-10-20T11:52:28.596Z,3.72
2023-10-20T11:55:31.471Z,4.28
2023-10-20T11:58:34.315Z,5.72
2023-10-20T12:01:36.877Z,5.80
2023-10-20T12:04:39.031Z,6.27
2023-10-20T12:07:41.124Z,6.78
2023-10-20T12:10:43.435Z,16.42
2023-10-20T12:13:49.372Z,6.82
2023-10-20T12:16:51.487Z,7.30
2023-10-20T12:19:53.638Z,6.83
2023-10-20T12:23:00.090Z,7.20
2023-10-20T12:26:04.416Z,8.80
2023-10-20T12:29:06.621Z,5.90
2023-10-20T12:32:13.829Z,5.65
2023-10-20T12:35:17.788Z,3.90
2023-10-20T12:38:20.090Z,4.13
2023-10-20T12:41:22.280Z,3.97
2023-10-20T12:44:24.614Z,3.90
2023-10-20T12:47:26.761Z,3.80
2023-10-20T12:50:31.150Z,3.20
2023-10-20T12:53:33.359Z,3.30
2023-10-20T12:56:35.529Z,3.58
2023-10-20T12:59:37.815Z,2.97
2023-10-20T13:02:41.297Z,3.00
2023-10-20T13:05:43.730Z,3.10
2023-10-20T13:08:46.887Z,3.88
2023-10-20T13:11:49.102Z,3.50
2023-10-20T13:14:51.478Z,4.15
2023-10-20T13:17:53.692Z,3.60
2023-10-20T13:20:55.944Z,3.33
2023-10-20T13:23:58.440Z,4.50
2023-10-20T13:27:01.398Z,3.47
2023-10-20T13:30:04.355Z,3.95
2023-10-20T13:33:06.874Z,4.28
2023-10-20T13:36:09.323Z,4.60
2023-10-20T13:42:17.777Z,4.70
2023-10-20T13:45:19.896Z,3.70
2023-10-20T13:48:22.129Z,3.70
2023-10-20T13:51:24.324Z,4.47
2023-10-20T13:54:28.503Z,4.20
2023-10-20T13:57:30.662Z,3.47
2023-10-20T14:00:34.973Z,4.40
2023-10-20T14:03:37.358Z,4.10
2023-10-20T14:06:39.703Z,4.73
2023-10-20T14:09:42.036Z,3.90
2023-10-20T14:12:44.377Z,4.07
2023-10-20T14:15:46.678Z,3.55
2023-10-20T14:18:49.369Z,3.75
2023-10-20T14:21:51.531Z,3.73
2023-10-20T14:24:53.888Z,4.13
2023-10-20T14:27:56.015Z,5.05
2023-10-20T14:30:58.721Z,4.50
2023-10-20T14:34:00.942Z,5.63
2023-10-20T14:37:04.571Z,3.77
2023-10-20T14:40:07.694Z,4.20
2023-10-20T14:43:12.194Z,5.13
2023-10-20T14:46:14.595Z,4.15
2023-10-20T14:49:16.809Z,5.03
2023-10-20T14:52:18.975Z,6.03
2023-10-20T14:55:21.140Z,5.80
2023-10-20T14:58:23.246Z,5.40
2023-10-20T15:01:25.451Z,4.40
2023-10-20T15:04:30.761Z,4.28
2023-10-20T15:07:33.183Z,4.13
2023-10-20T15:10:38.031Z,4.70
2023-10-20T15:13:40.172Z,3.85
2023-10-20T15:16:42.354Z,4.43
2023-10-20T15:19:44.661Z,4.20
2023-10-20T15:22:47.433Z,3.40
2023-10-20T15:25:49.574Z,4.18
2023-10-20T15:28:52.022Z,3.83
2023-10-20T15:31:54.285Z,4.57
2023-10-20T15:34:56.662Z,4.32
2023-10-20T15:37:58.871Z,4.87
2023-10-20T15:41:00.961Z,5.00
2023-10-20T15:44:04.707Z,5.82
2023-10-20T15:47:06.789Z,4.80
2023-10-20T15:50:09.070Z,4.95
2023-10-20T15:53:11.217Z,5.50
2023-10-20T15:56:13.939Z,5.90
2023-10-20T15:59:16.143Z,6.07
2023-10-20T16:02:18.264Z,5.40
2023-10-20T16:05:20.424Z,6.53
2023-10-20T16:08:22.541Z,5.70
2023-10-20T16:11:24.755Z,5.85
2023-10-20T16:14:26.885Z,5.88
2023-10-20T16:17:29.027Z,6.40
2023-10-20T16:20:31.626Z,5.75
2023-10-20T16:23:33.843Z,6.00
2023-10-20T16:26:36.449Z,6.10
2023-10-20T16:29:38.588Z,6.10
2023-10-20T16:32:42.308Z,5.90
2023-10-20T16:35:48.322Z,5.68
2023-10-20T16:38:50.888Z,5.80
2023-10-20T16:41:53.060Z,6.20
2023-10-20T16:44:55.344Z,6.25
2023-10-20T16:47:57.625Z,6.30
2023-10-20T16:51:01.452Z,5.70
2023-10-20T16:54:03.784Z,6.10
2023-10-20T16:57:06.387Z,6.05
2023-10-20T17:00:08.764Z,6.13
2023-10-20T17:03:11.071Z,5.63
2023-10-20T17:06:13.855Z,6.38
2023-10-20T17:09:16.070Z,5.73
2023-10-20T17:12:18.398Z,7.10
2023-10-20T17:15:20.502Z,5.78
2023-10-20T17:18:22.600Z,6.07
2023-10-20T17:21:24.902Z,5.68
2023-10-20T17:24:27.551Z,5.30
2023-10-20T17:27:29.910Z,4.93
2023-10-20T17:30:32.034Z,5.05
2023-10-20T17:33:34.459Z,5.13
2023-10-20T17:36:37.156Z,4.78
2023-10-20T17:39:39.436Z,4.97
2023-10-20T17:42:41.764Z,5.53
2023-10-20T17:45:43.955Z,5.13
2023-10-20T17:48:46.716Z,4.90
2023-10-20T17:51:49.014Z,4.60
2023-10-20T17:54:51.439Z,5.00
2023-10-20T17:57:53.849Z,4.32
2023-10-20T18:01:02.724Z,3.42
2023-10-20T18:04:05.361Z,4.10
2023-10-20T18:07:07.842Z,4.00
2023-10-20T18:10:10.127Z,4.70
2023-10-20T18:13:12.361Z,4.82
2023-10-20T18:16:16.150Z,3.30
2023-10-20T18:19:18.837Z,3.90
2023-10-20T18:22:20.961Z,3.22
2023-10-20T18:25:23.506Z,3.93
2023-10-20T18:28:27.075Z,4.57
2023-10-20T18:31:30.926Z,3.95
2023-10-20T18:34:33.110Z,3.35
2023-10-20T18:37:35.230Z,4.38
2023-10-20T18:40:37.485Z,4.30
2023-10-20T18:43:39.861Z,4.03
2023-10-20T18:46:42.352Z,4.47
2023-10-20T18:49:44.549Z,3.80
2023-10-20T18:52:46.653Z,4.20
2023-10-20T18:55:49.831Z,4.23
2023-10-20T18:58:51.996Z,4.72
2023-10-20T19:01:54.508Z,4.28
2023-10-20T19:04:56.941Z,3.72
2023-10-20T19:08:00.077Z,4.65
2023-10-20T19:11:05.800Z,4.07
2023-10-20T19:14:09.136Z,3.85
2023-10-20T19:17:11.617Z,4.18
2023-10-20T19:20:15.082Z,3.90
2023-10-20T19:23:17.744Z,4.18
2023-10-20T19:26:19.894Z,4.40
2023-10-20T19:29:22.490Z,4.85
2023-10-20T19:32:25.984Z,4.88
2023-10-20T19:35:28.301Z,4.68
2023-10-20T19:38:30.534Z,4.75
2023-10-20T19:41:33.064Z,5.23
2023-10-20T19:44:35.410Z,4.55
2023-10-20T19:47:37.662Z,5.18
2023-10-20T19:50:40.857Z,4.53
2023-10-20T19:53:43.375Z,4.82
2023-10-20T19:56:45.566Z,4.97
2023-10-20T19:59:47.830Z,5.35
2023-10-20T20:02:50.115Z,5.07
2023-10-20T20:05:52.467Z,4.72
2023-10-20T20:08:54.819Z,5.70
2023-10-20T20:11:58.168Z,4.30
2023-10-20T20:15:00.564Z,6.60
2023-10-20T20:18:02.875Z,4.80
2023-10-20T20:21:05.113Z,5.47
2023-10-20T20:24:07.635Z,5.43
2023-10-20T20:27:10.007Z,4.30
2023-10-20T20:30:12.578Z,5.20
2023-10-20T20:33:14.769Z,5.35
2023-10-20T20:36:16.954Z,4.63
2023-10-20T20:39:19.707Z,5.15
2023-10-20T20:42:22.057Z,5.90
2023-10-20T20:45:24.190Z,5.43
2023-10-20T20:48:26.687Z,4.75
2023-10-20T20:51:28.912Z,5.18
2023-10-20T20:54:33.595Z,5.07
2023-10-20T20:57:35.841Z,4.63
2023-10-20T21:00:38.057Z,4.38
2023-10-20T21:03:44.877Z,4.70
2023-10-20T21:06:48.250Z,5.43
2023-10-20T21:09:50.465Z,5.30
2023-10-20T21:12:52.585Z,5.10
2023-10-20T21:15:54.817Z,5.25
2023-10-20T21:19:01.337Z,5.25
2023-10-20T21:22:04.102Z,5.38
2023-10-20T21:25:06.446Z,5.82
2023-10-20T21:28:09.078Z,5.20
2023-10-20T21:31:11.326Z,5.22
2023-10-20T21:34:13.495Z,4.53
2023-10-20T21:37:15.642Z,4.72
2023-10-20T21:40:17.753Z,5.10
2023-10-20T21:43:19.916Z,5.37
2023-10-20T21:46:22.455Z,5.15
2023-10-20T21:49:24.881Z,4.82
2023-10-20T21:52:27.273Z,4.72
2023-10-20T21:55:29.379Z,5.85
2023-10-20T21:58:32.463Z,5.23
2023-10-20T22:01:34.715Z,5.20
2023-10-20T22:04:36.945Z,6.03
2023-10-20T22:07:41.877Z,5.10
2023-10-20T22:10:45.003Z,5.03
2023-10-20T22:13:47.085Z,5.43
2023-10-20T22:16:49.240Z,5.45
2023-10-20T22:19:51.407Z,4.68
2023-10-20T22:22:53.506Z,5.00
2023-10-20T22:25:55.721Z,4.38
2023-10-20T22:28:57.863Z,5.50
2023-10-20T22:32:00.043Z,4.70
2023-10-20T22:35:03.138Z,5.57
2023-10-20T22:38:05.544Z,4.90
2023-10-20T22:41:08.304Z,5.18
2023-10-20T22:44:11.091Z,4.47
2023-10-20T22:47:13.194Z,6.07
2023-10-20T22:50:19.347Z,5.18
2023-10-20T22:53:21.770Z,5.13
2023-10-20T22:56:24.132Z,5.10
2023-10-20T22:59:26.478Z,5.37
2023-10-20T23:02:28.634Z,5.05
2023-10-20T23:05:30.797Z,5.38
2023-10-20T23:08:33.091Z,4.95
2023-10-20T23:11:35.166Z,5.53
2023-10-20T23:14:37.277Z,5.87
2023-10-20T23:17:39.632Z,4.85
2023-10-20T23:20:42.308Z,4.90
2023-10-20T23:23:45.288Z,5.13
2023-10-20T23:26:48.372Z,5.35
2023-10-20T23:29:50.682Z,4.83
2023-10-20T23:32:52.952Z,4.25
2023-10-20T23:35:57.394Z,5.05
2023-10-20T23:38:59.595Z,4.95
2023-10-20T23:42:02.282Z,5.50
2023-10-20T23:45:04.830Z,4.93
2023-10-20T23:48:07.609Z,4.72
2023-10-20T23:51:09.795Z,5.50
2023-10-20T23:54:12.236Z,4.93
2023-10-20T23:57:14.987Z,4.55
